Startpagina
METAR-TAF:

METAR-TAF

Vliegvelden :

Meiringen, Zwitserland

breedte: 46-44-25N, lengte: 8-06-36E, hoogte: 577 m

Actueel weer

Dit bericht is 40 minuten geleden gemaakt, om 16:50 UTC
Wind 4 kt uit het oosten
Temperatuur -1°C
Vochtigheid 100%
Druk 1013 hPa
Zicht 10 km of meer
Weinig wolken op 7200 ft

METAR: LSMM 181650Z AUTO 09004KT 9999NDV FEW072 M01/M01 Q1013 RMK

Tijdstip: 18:30 (17:30 UTC)


TAF: ontbreekt

Waarnemingen en weersverwachtingen van meer dan 4000 vliegvelden (METAR en TAF).

De beschikbare stations zijn de gele en rode punten op de kaart.

Ga met uw muis naar het station om de naam te zien.

Klik dan om waarnemingen en weersverwachtingen te zien.

kaart wijzigen: klik op de groene knoppen met een zwart kruis om in te zoomen, op de groene knop met een streepje om uit te zoomen of op de groene pijlen voor aangrenzende kaarten.


METAR-TAF: